PWSweather.com
Personal Weather Stations
Station Observations
KNCCARY10
Cary Park, Cary, NC 27519

Cary ParkCary, NC 27519

Lat: 35.81, Lon: -78.92

Elevation: 430

Station Type:

http://260servers.net/weather/index.htm

Latest ConditionsUpdated 7:30:01 PM EDT Saturday, Apr 20, 2019
Currently Today's Max Today's Min Today's Average
Temperature 52.7°F11.5°C 66.0°F18.9°C 52.2°F11.2°C 59.1°F15.1°C
Dew Point 49.2°F9.6°C 64.2°F17.9°C 44.1°F6.7°C 51.3°F10.7°C
Winds Calm Calm 15.0 mph -24.1 kmh - - 5.1 mph 8.2 kmh
Wind Gusts -- 36.0 mph57.9 kmh - -
Humidity 88% 94% 50% 77%
Pressure 29.87 in1011.5 mb 29.87 in1011.5 mb 29.59 in1002.0 mb -
Precipitation - 0.08 in2.0 mm - -
Hour Temp Dew Point Humidity Winds Wind Gusts Pressure Precip Precip Rate Daily Precip Total
07:30 PM 52.7°F11.5°C 49.2°F9.6°C 88% Calm Calm -- 29.87 in1011.5 mb 0.00 in0.0 mm 0.00 in0.0 mm 0.08 in2.0 mm
07:15 PM 52.9°F11.6°C 49.1°F9.5°C 87% Calm Calm -- 29.86 in1011.2 mb 0.01 in0.3 mm 0.00 in0.0 mm 0.08 in2.0 mm
07:00 PM 53.0°F11.7°C 48.9°F9.4°C 86% Calm Calm 4.0 mph6.4 kmh 29.86 in1011.2 mb 0.01 in0.3 mm 0.00 in0.0 mm 0.08 in2.0 mm
06:45 PM 53.0°F11.7°C 48.6°F9.2°C 85% Calm Calm 4.0 mph6.4 kmh 29.85 in1010.8 mb 0.01 in0.3 mm 0.00 in0.0 mm 0.08 in2.0 mm
06:30 PM 53.7°F12.1°C 49.0°F9.4°C 84% Calm Calm 6.0 mph9.7 kmh 29.85 in1010.8 mb 0.01 in0.3 mm 0.04 in1.0 mm 0.08 in2.0 mm
06:15 PM 54.0°F12.2°C 49.0°F9.4°C 83% Calm Calm 10.0 mph16.1 kmh 29.85 in1010.8 mb 0.00 in0.0 mm 0.00 in0.0 mm 0.07 in1.8 mm
06:00 PM 54.7°F12.6°C 48.3°F9.1°C 79% Calm Calm 8.0 mph12.9 kmh 29.85 in1010.8 mb 0.00 in0.0 mm 0.00 in0.0 mm 0.07 in1.8 mm
05:45 PM 55.7°F13.2°C 47.9°F8.8°C 75% 3.0 mph ESE4.8 kmh ESE 10.0 mph16.1 kmh 29.83 in1010.2 mb 0.00 in0.0 mm 0.00 in0.0 mm 0.07 in1.8 mm
05:30 PM 57.8°F14.3°C 47.3°F8.5°C 68% 6.0 mph E9.7 kmh E 16.0 mph25.7 kmh 29.82 in1009.8 mb 0.00 in0.0 mm 0.00 in0.0 mm 0.07 in1.8 mm
05:15 PM 58.9°F14.9°C 45.0°F7.2°C 60% 3.0 mph E4.8 kmh E 12.0 mph19.3 kmh 29.81 in1009.5 mb 0.00 in0.0 mm 0.00 in0.0 mm 0.07 in1.8 mm
05:00 PM 59.3°F15.2°C 45.8°F7.7°C 61% 6.0 mph E9.7 kmh E 20.0 mph32.2 kmh 29.80 in1009.1 mb 0.00 in0.0 mm 0.00 in0.0 mm 0.07 in1.8 mm
04:45 PM 59.8°F15.4°C 46.3°F7.9°C 61% 3.0 mph E4.8 kmh E 20.0 mph32.2 kmh 29.80 in1009.1 mb 0.00 in0.0 mm 0.00 in0.0 mm 0.07 in1.8 mm
04:30 PM 60.4°F15.8°C 45.5°F7.5°C 58% 3.0 mph E4.8 kmh E 12.0 mph19.3 kmh 29.79 in1008.8 mb 0.00 in0.0 mm 0.00 in0.0 mm 0.07 in1.8 mm
04:15 PM 60.9°F16.1°C 44.6°F7.0°C 55% 6.0 mph E9.7 kmh E 16.0 mph25.7 kmh 29.79 in1008.8 mb 0.00 in0.0 mm 0.00 in0.0 mm 0.07 in1.8 mm
04:00 PM 62.5°F16.9°C 45.1°F7.3°C 53% 3.0 mph E4.8 kmh E 18.0 mph29.0 kmh 29.79 in1008.8 mb 0.00 in0.0 mm 0.00 in0.0 mm 0.07 in1.8 mm
03:45 PM 62.4°F16.9°C 46.0°F7.8°C 55% 9.0 mph E14.5 kmh E 30.0 mph48.3 kmh 29.79 in1008.8 mb 0.00 in0.0 mm 0.00 in0.0 mm 0.07 in1.8 mm
03:30 PM 61.8°F16.6°C 45.0°F7.2°C 54% 9.0 mph E14.5 kmh E 24.0 mph38.6 kmh 29.79 in1008.8 mb 0.00 in0.0 mm 0.00 in0.0 mm 0.07 in1.8 mm
03:15 PM 62.4°F16.9°C 45.5°F7.5°C 54% 6.0 mph E9.7 kmh E 20.0 mph32.2 kmh 29.80 in1009.1 mb 0.00 in0.0 mm 0.00 in0.0 mm 0.07 in1.8 mm
03:00 PM 65.3°F18.5°C 46.2°F7.9°C 50% 9.0 mph E14.5 kmh E 20.0 mph32.2 kmh 29.79 in1008.8 mb 0.00 in0.0 mm 0.00 in0.0 mm 0.07 in1.8 mm
02:45 PM 63.9°F17.7°C 45.4°F7.4°C 51% 12.0 mph ENE19.3 kmh ENE 22.0 mph35.4 kmh 29.80 in1009.1 mb 0.00 in0.0 mm 0.00 in0.0 mm 0.07 in1.8 mm
02:30 PM 63.9°F17.7°C 45.9°F7.7°C 52% 12.0 mph E19.3 kmh E 32.0 mph51.5 kmh 29.80 in1009.1 mb 0.00 in0.0 mm 0.00 in0.0 mm 0.07 in1.8 mm
02:15 PM 64.1°F17.8°C 46.1°F7.8°C 52% 12.0 mph ENE19.3 kmh ENE 30.0 mph48.3 kmh 29.80 in1009.1 mb 0.00 in0.0 mm 0.00 in0.0 mm 0.07 in1.8 mm
02:00 PM 62.5°F16.9°C 44.1°F6.7°C 51% 15.0 mph E24.1 kmh E 36.0 mph57.9 kmh 29.81 in1009.5 mb 0.00 in0.0 mm 0.00 in0.0 mm 0.07 in1.8 mm
01:45 PM 62.0°F16.7°C 45.2°F7.3°C 54% 12.0 mph E19.3 kmh E 22.0 mph35.4 kmh 29.81 in1009.5 mb 0.00 in0.0 mm 0.00 in0.0 mm 0.07 in1.8 mm
01:30 PM 61.9°F16.6°C 46.5°F8.1°C 57% 9.0 mph E14.5 kmh E 16.0 mph25.7 kmh 29.81 in1009.5 mb 0.00 in0.0 mm 0.00 in0.0 mm 0.07 in1.8 mm
01:15 PM 64.1°F17.8°C 47.6°F8.7°C 55% 9.0 mph E14.5 kmh E 24.0 mph38.6 kmh 29.81 in1009.5 mb 0.00 in0.0 mm 0.00 in0.0 mm 0.07 in1.8 mm
01:00 PM 63.3°F17.4°C 46.4°F8.0°C 54% 12.0 mph E19.3 kmh E 22.0 mph35.4 kmh 29.80 in1009.1 mb 0.00 in0.0 mm 0.00 in0.0 mm 0.07 in1.8 mm
12:45 PM 62.4°F16.9°C 46.5°F8.1°C 56% 12.0 mph E19.3 kmh E 28.0 mph45.1 kmh 29.80 in1009.1 mb 0.00 in0.0 mm 0.00 in0.0 mm 0.07 in1.8 mm
12:30 PM 62.5°F16.9°C 46.6°F8.1°C 56% 9.0 mph E14.5 kmh E 28.0 mph45.1 kmh 29.80 in1009.1 mb 0.00 in0.0 mm 0.00 in0.0 mm 0.07 in1.8 mm
12:15 PM 63.0°F17.2°C 48.9°F9.4°C 60% 9.0 mph E14.5 kmh E 34.0 mph54.7 kmh 29.80 in1009.1 mb 0.00 in0.0 mm 0.00 in0.0 mm 0.07 in1.8 mm
12:00 PM 62.4°F16.9°C 48.8°F9.3°C 61% 12.0 mph ENE19.3 kmh ENE 30.0 mph48.3 kmh 29.80 in1009.1 mb 0.00 in0.0 mm 0.00 in0.0 mm 0.07 in1.8 mm
11:45 AM 60.6°F15.9°C 47.9°F8.8°C 63% 12.0 mph E19.3 kmh E 24.0 mph38.6 kmh 29.80 in1009.1 mb 0.00 in0.0 mm 0.00 in0.0 mm 0.07 in1.8 mm
11:30 AM 61.1°F16.2°C 49.2°F9.6°C 65% 6.0 mph E9.7 kmh E 18.0 mph29.0 kmh 29.81 in1009.5 mb 0.00 in0.0 mm 0.00 in0.0 mm 0.07 in1.8 mm
11:15 AM 60.2°F15.7°C 50.4°F10.2°C 70% 9.0 mph E14.5 kmh E 24.0 mph38.6 kmh 29.81 in1009.5 mb 0.00 in0.0 mm 0.00 in0.0 mm 0.07 in1.8 mm
11:00 AM 58.6°F14.8°C 48.1°F8.9°C 68% 9.0 mph E14.5 kmh E 20.0 mph32.2 kmh 29.80 in1009.1 mb 0.00 in0.0 mm 0.00 in0.0 mm 0.07 in1.8 mm
10:45 AM 58.7°F14.8°C 48.6°F9.2°C 69% 6.0 mph E9.7 kmh E 20.0 mph32.2 kmh 29.80 in1009.1 mb 0.00 in0.0 mm 0.00 in0.0 mm 0.07 in1.8 mm
10:30 AM 58.7°F14.8°C 50.8°F10.4°C 75% 6.0 mph E9.7 kmh E 20.0 mph32.2 kmh 29.79 in1008.8 mb 0.00 in0.0 mm 0.00 in0.0 mm 0.07 in1.8 mm
10:15 AM 58.2°F14.6°C 50.3°F10.2°C 75% 3.0 mph E4.8 kmh E 12.0 mph19.3 kmh 29.79 in1008.8 mb 0.00 in0.0 mm 0.00 in0.0 mm 0.07 in1.8 mm
10:00 AM 57.1°F13.9°C 50.3°F10.2°C 78% 6.0 mph E9.7 kmh E 18.0 mph29.0 kmh 29.79 in1008.8 mb 0.00 in0.0 mm 0.00 in0.0 mm 0.07 in1.8 mm
09:45 AM 56.9°F13.8°C 49.4°F9.7°C 76% 6.0 mph E9.7 kmh E 20.0 mph32.2 kmh 29.77 in1008.1 mb 0.00 in0.0 mm 0.00 in0.0 mm 0.07 in1.8 mm
09:30 AM 58.4°F14.7°C 49.8°F9.9°C 73% 9.0 mph E14.5 kmh E 24.0 mph38.6 kmh 29.77 in1008.1 mb 0.00 in0.0 mm 0.00 in0.0 mm 0.07 in1.8 mm
09:15 AM 57.9°F14.4°C 50.4°F10.2°C 76% 9.0 mph E14.5 kmh E 18.0 mph29.0 kmh 29.77 in1008.1 mb 0.00 in0.0 mm 0.00 in0.0 mm 0.07 in1.8 mm
09:00 AM 57.3°F14.1°C 51.2°F10.7°C 80% 6.0 mph E9.7 kmh E 14.0 mph22.5 kmh 29.77 in1008.1 mb 0.00 in0.0 mm 0.00 in0.0 mm 0.07 in1.8 mm
08:45 AM 57.7°F14.3°C 50.9°F10.5°C 78% 6.0 mph E9.7 kmh E 16.0 mph25.7 kmh 29.76 in1007.8 mb 0.00 in0.0 mm 0.00 in0.0 mm 0.07 in1.8 mm
08:30 AM 56.6°F13.7°C 50.2°F10.1°C 79% 12.0 mph E19.3 kmh E 24.0 mph38.6 kmh 29.76 in1007.8 mb 0.00 in0.0 mm 0.00 in0.0 mm 0.07 in1.8 mm
08:15 AM 56.1°F13.4°C 50.0°F10.0°C 80% 9.0 mph E14.5 kmh E 34.0 mph54.7 kmh 29.75 in1007.5 mb 0.00 in0.0 mm 0.00 in0.0 mm 0.07 in1.8 mm
08:00 AM 55.4°F13.0°C 50.3°F10.2°C 83% 6.0 mph E9.7 kmh E 18.0 mph29.0 kmh 29.75 in1007.5 mb 0.00 in0.0 mm 0.00 in0.0 mm 0.07 in1.8 mm
07:45 AM 54.0°F12.2°C 49.9°F9.9°C 86% 6.0 mph E9.7 kmh E 16.0 mph25.7 kmh 29.74 in1007.1 mb 0.00 in0.0 mm 0.00 in0.0 mm 0.07 in1.8 mm
07:30 AM 52.8°F11.6°C 49.3°F9.6°C 88% 3.0 mph E4.8 kmh E 14.0 mph22.5 kmh 29.73 in1006.8 mb 0.00 in0.0 mm 0.00 in0.0 mm 0.07 in1.8 mm
07:15 AM 52.2°F11.2°C 49.7°F9.8°C 91% Calm Calm 8.0 mph12.9 kmh 29.73 in1006.8 mb 0.00 in0.0 mm 0.00 in0.0 mm 0.07 in1.8 mm
07:00 AM 52.3°F11.3°C 50.0°F10.0°C 92% 3.0 mph E4.8 kmh E 10.0 mph16.1 kmh 29.72 in1006.4 mb 0.00 in0.0 mm 0.00 in0.0 mm 0.07 in1.8 mm
06:45 AM 52.6°F11.4°C 50.0°F10.0°C 91% 3.0 mph E4.8 kmh E 6.0 mph9.7 kmh 29.70 in1005.8 mb 0.00 in0.0 mm 0.00 in0.0 mm 0.07 in1.8 mm
06:30 AM 53.0°F11.7°C 50.1°F10.1°C 90% 3.0 mph E4.8 kmh E 10.0 mph16.1 kmh 29.70 in1005.8 mb 0.00 in0.0 mm 0.00 in0.0 mm 0.07 in1.8 mm
06:15 AM 53.4°F11.9°C 50.2°F10.1°C 89% 3.0 mph E4.8 kmh E 12.0 mph19.3 kmh 29.69 in1005.4 mb 0.00 in0.0 mm 0.00 in0.0 mm 0.07 in1.8 mm
06:00 AM 53.3°F11.8°C 50.4°F10.2°C 90% 3.0 mph E4.8 kmh E 12.0 mph19.3 kmh 29.68 in1005.1 mb 0.00 in0.0 mm 0.00 in0.0 mm 0.07 in1.8 mm
05:45 AM 53.6°F12.0°C 50.7°F10.4°C 90% Calm Calm 6.0 mph9.7 kmh 29.66 in1004.4 mb 0.00 in0.0 mm 0.00 in0.0 mm 0.07 in1.8 mm
05:30 AM 54.0°F12.2°C 51.1°F10.6°C 90% Calm Calm 4.0 mph6.4 kmh 29.65 in1004.1 mb 0.00 in0.0 mm 0.00 in0.0 mm 0.07 in1.8 mm
05:15 AM 54.7°F12.6°C 51.5°F10.8°C 89% Calm Calm 8.0 mph12.9 kmh 29.65 in1004.1 mb 0.00 in0.0 mm 0.00 in0.0 mm 0.07 in1.8 mm
05:00 AM 55.0°F12.8°C 51.8°F11.0°C 89% 3.0 mph E4.8 kmh E 10.0 mph16.1 kmh 29.65 in1004.1 mb 0.00 in0.0 mm 0.00 in0.0 mm 0.07 in1.8 mm
04:45 AM 55.5°F13.1°C 52.6°F11.4°C 90% Calm Calm 4.0 mph6.4 kmh 29.64 in1003.7 mb 0.00 in0.0 mm 0.00 in0.0 mm 0.07 in1.8 mm
04:30 AM 56.3°F13.5°C 53.4°F11.9°C 90% Calm Calm 2.0 mph3.2 kmh 29.63 in1003.4 mb 0.00 in0.0 mm 0.00 in0.0 mm 0.07 in1.8 mm
04:15 AM 57.1°F13.9°C 54.2°F12.3°C 90% Calm Calm 8.0 mph12.9 kmh 29.63 in1003.4 mb 0.00 in0.0 mm 0.00 in0.0 mm 0.07 in1.8 mm
04:00 AM 58.2°F14.6°C 55.3°F12.9°C 90% 3.0 mph E4.8 kmh E 8.0 mph12.9 kmh 29.63 in1003.4 mb 0.00 in0.0 mm 0.00 in0.0 mm 0.07 in1.8 mm
03:45 AM 59.2°F15.1°C 56.3°F13.5°C 90% 3.0 mph E4.8 kmh E 8.0 mph12.9 kmh 29.63 in1003.4 mb 0.00 in0.0 mm 0.00 in0.0 mm 0.07 in1.8 mm
03:30 AM 60.3°F15.7°C 57.4°F14.1°C 90% Calm Calm 6.0 mph9.7 kmh 29.62 in1003.0 mb 0.00 in0.0 mm 0.00 in0.0 mm 0.07 in1.8 mm
03:15 AM 61.1°F16.2°C 58.1°F14.5°C 90% 3.0 mph E4.8 kmh E 14.0 mph22.5 kmh 29.63 in1003.4 mb 0.00 in0.0 mm 0.00 in0.0 mm 0.07 in1.8 mm
03:00 AM 61.7°F16.5°C 59.4°F15.2°C 92% 3.0 mph E4.8 kmh E 10.0 mph16.1 kmh 29.63 in1003.4 mb 0.00 in0.0 mm 0.00 in0.0 mm 0.07 in1.8 mm
02:45 AM 62.0°F16.7°C 60.0°F15.6°C 93% 3.0 mph E4.8 kmh E 10.0 mph16.1 kmh 29.62 in1003.0 mb 0.00 in0.0 mm 0.00 in0.0 mm 0.07 in1.8 mm
02:30 AM 62.4°F16.9°C 60.7°F15.9°C 94% 3.0 mph E4.8 kmh E 8.0 mph12.9 kmh 29.62 in1003.0 mb 0.00 in0.0 mm 0.00 in0.0 mm 0.07 in1.8 mm
02:15 AM 62.7°F17.1°C 60.9°F16.1°C 94% 3.0 mph E4.8 kmh E 8.0 mph12.9 kmh 29.62 in1003.0 mb 0.00 in0.0 mm 0.00 in0.0 mm 0.07 in1.8 mm
02:00 AM 63.1°F17.3°C 61.0°F16.1°C 93% 6.0 mph E9.7 kmh E 14.0 mph22.5 kmh 29.62 in1003.0 mb 0.06 in1.5 mm 0.00 in0.0 mm 0.07 in1.8 mm
01:45 AM 63.8°F17.7°C 61.7°F16.5°C 93% 6.0 mph E9.7 kmh E 16.0 mph25.7 kmh 29.62 in1003.0 mb 0.07 in1.8 mm 0.00 in0.0 mm 0.07 in1.8 mm
01:30 AM 64.5°F18.1°C 62.4°F16.9°C 93% 6.0 mph E9.7 kmh E 28.0 mph45.1 kmh 29.62 in1003.0 mb 0.07 in1.8 mm 0.00 in0.0 mm 0.07 in1.8 mm
01:15 AM 65.7°F18.7°C 63.3°F17.4°C 92% 6.0 mph E9.7 kmh E 22.0 mph35.4 kmh 29.61 in1002.7 mb 0.07 in1.8 mm 0.24 in6.1 mm 0.07 in1.8 mm
01:00 AM 66.0°F18.9°C 64.2°F17.9°C 94% 3.0 mph S4.8 kmh S 14.0 mph22.5 kmh 29.59 in1002.0 mb 0.01 in0.3 mm 0.01 in0.3 mm 0.01 in0.3 mm
12:45 AM 65.9°F18.8°C 64.1°F17.8°C 94% 3.0 mph E4.8 kmh E 18.0 mph29.0 kmh 29.60 in1002.4 mb 0.00 in0.0 mm 0.00 in0.0 mm 0.00 in0.0 mm
12:30 AM 65.6°F18.7°C 63.8°F17.7°C 94% Calm Calm 6.0 mph9.7 kmh 29.59 in1002.0 mb 0.00 in0.0 mm 0.00 in0.0 mm 0.00 in0.0 mm
12:15 AM 65.6°F18.7°C 63.8°F17.7°C 94% 3.0 mph E4.8 kmh E 14.0 mph22.5 kmh 29.60 in1002.4 mb 0.00 in0.0 mm 0.00 in0.0 mm 0.00 in0.0 mm
12:00 AM 65.8°F18.8°C 64.0°F17.8°C 94% 3.0 mph SE4.8 kmh SE 16.0 mph25.7 kmh 29.60 in1002.4 mb 0.00 in0.0 mm 0.00 in0.0 mm 0.00 in0.0 mm